sensor_id;sensor_type;location;lat;lon;timestamp;temperature;humidity
79140;HTU21D;68546;59.142;37.948;2024-02-15T00:01:42;-12.51;52.25
79140;HTU21D;68546;59.142;37.948;2024-02-15T00:04:08;-12.44;52.17
79140;HTU21D;68546;59.142;37.948;2024-02-15T00:06:36;-12.42;52.06
79140;HTU21D;68546;59.142;37.948;2024-02-15T00:09:03;-12.39;51.94
79140;HTU21D;68546;59.142;37.948;2024-02-15T00:11:29;-12.42;51.91
79140;HTU21D;68546;59.142;37.948;2024-02-15T00:13:56;-12.44;51.79
79140;HTU21D;68546;59.142;37.948;2024-02-15T00:16:22;-12.45;51.69
79140;HTU21D;68546;59.142;37.948;2024-02-15T00:18:49;-12.47;51.65
79140;HTU21D;68546;59.142;37.948;2024-02-15T00:21:15;-12.50;51.64
79140;HTU21D;68546;59.142;37.948;2024-02-15T00:23:42;-12.50;51.59
79140;HTU21D;68546;59.142;37.948;2024-02-15T00:26:08;-12.52;51.55
79140;HTU21D;68546;59.142;37.948;2024-02-15T00:28:37;-12.50;51.51
79140;HTU21D;68546;59.142;37.948;2024-02-15T00:31:04;-12.50;52.07
79140;HTU21D;68546;59.142;37.948;2024-02-15T00:33:30;-12.41;52.16
79140;HTU21D;68546;59.142;37.948;2024-02-15T00:35:56;-12.39;51.99
79140;HTU21D;68546;59.142;37.948;2024-02-15T00:38:23;-12.36;51.85
79140;HTU21D;68546;59.142;37.948;2024-02-15T00:40:50;-12.32;52.17
79140;HTU21D;68546;59.142;37.948;2024-02-15T00:43:16;-12.27;52.03
79140;HTU21D;68546;59.142;37.948;2024-02-15T00:45:42;-12.25;51.97
79140;HTU21D;68546;59.142;37.948;2024-02-15T00:48:08;-12.23;51.88
79140;HTU21D;68546;59.142;37.948;2024-02-15T00:50:36;-12.24;51.77
79140;HTU21D;68546;59.142;37.948;2024-02-15T00:53:02;-12.24;51.64
79140;HTU21D;68546;59.142;37.948;2024-02-15T00:55:28;-12.21;51.60
79140;HTU21D;68546;59.142;37.948;2024-02-15T00:57:55;-12.22;52.02
79140;HTU21D;68546;59.142;37.948;2024-02-15T01:00:21;-12.18;51.94
79140;HTU21D;68546;59.142;37.948;2024-02-15T01:02:47;-12.14;51.80
79140;HTU21D;68546;59.142;37.948;2024-02-15T01:05:14;-12.14;51.61
79140;HTU21D;68546;59.142;37.948;2024-02-15T01:07:41;-12.15;51.40
79140;HTU21D;68546;59.142;37.948;2024-02-15T01:10:08;-12.20;51.24
79140;HTU21D;68546;59.142;37.948;2024-02-15T01:12:34;-12.22;51.18
79140;HTU21D;68546;59.142;37.948;2024-02-15T01:15:01;-12.25;51.15
79140;HTU21D;68546;59.142;37.948;2024-02-15T01:17:27;-12.27;51.12
79140;HTU21D;68546;59.142;37.948;2024-02-15T01:19:53;-12.26;51.06
79140;HTU21D;68546;59.142;37.948;2024-02-15T01:22:20;-12.33;51.04
79140;HTU21D;68546;59.142;37.948;2024-02-15T01:24:52;-12.36;50.98
79140;HTU21D;68546;59.142;37.948;2024-02-15T01:27:19;-12.38;50.85
79140;HTU21D;68546;59.142;37.948;2024-02-15T01:29:45;-12.41;50.82
79140;HTU21D;68546;59.142;37.948;2024-02-15T01:32:12;-12.43;50.77
79140;HTU21D;68546;59.142;37.948;2024-02-15T01:34:38;-12.43;50.73
79140;HTU21D;68546;59.142;37.948;2024-02-15T01:37:04;-12.47;51.25
79140;HTU21D;68546;59.142;37.948;2024-02-15T01:39:31;-12.40;51.11
79140;HTU21D;68546;59.142;37.948;2024-02-15T01:41:58;-12.42;50.95
79140;HTU21D;68546;59.142;37.948;2024-02-15T01:44:24;-12.40;50.82
79140;HTU21D;68546;59.142;37.948;2024-02-15T01:46:51;-12.42;51.24
79140;HTU21D;68546;59.142;37.948;2024-02-15T01:49:21;-12.38;51.09
79140;HTU21D;68546;59.142;37.948;2024-02-15T01:51:50;-12.38;50.95
79140;HTU21D;68546;59.142;37.948;2024-02-15T01:54:18;-12.39;50.83
79140;HTU21D;68546;59.142;37.948;2024-02-15T01:56:46;-12.37;50.75
79140;HTU21D;68546;59.142;37.948;2024-02-15T01:59:15;-12.38;51.14
79140;HTU21D;68546;59.142;37.948;2024-02-15T02:01:42;-12.37;51.04
79140;HTU21D;68546;59.142;37.948;2024-02-15T02:04:09;-12.37;50.85
79140;HTU21D;68546;59.142;37.948;2024-02-15T02:06:37;-12.40;50.82
79140;HTU21D;68546;59.142;37.948;2024-02-15T02:09:04;-12.37;50.80
79140;HTU21D;68546;59.142;37.948;2024-02-15T02:11:31;-12.36;51.28
79140;HTU21D;68546;59.142;37.948;2024-02-15T02:13:57;-12.33;51.26
79140;HTU21D;68546;59.142;37.948;2024-02-15T02:16:28;-12.30;51.15
79140;HTU21D;68546;59.142;37.948;2024-02-15T02:18:55;-12.27;51.03
79140;HTU21D;68546;59.142;37.948;2024-02-15T02:21:24;-12.28;50.95
79140;HTU21D;68546;59.142;37.948;2024-02-15T02:24:04;-12.28;51.33
79140;HTU21D;68546;59.142;37.948;2024-02-15T02:26:34;-12.24;51.23
79140;HTU21D;68546;59.142;37.948;2024-02-15T02:29:03;-12.22;51.09
79140;HTU21D;68546;59.142;37.948;2024-02-15T02:31:34;-12.25;50.97
79140;HTU21D;68546;59.142;37.948;2024-02-15T02:34:01;-12.27;50.88
79140;HTU21D;68546;59.142;37.948;2024-02-15T02:36:27;-12.27;50.92
79140;HTU21D;68546;59.142;37.948;2024-02-15T02:38:55;-12.25;50.92
79140;HTU21D;68546;59.142;37.948;2024-02-15T02:41:27;-12.25;51.50
79140;HTU21D;68546;59.142;37.948;2024-02-15T02:43:57;-12.20;51.47
79140;HTU21D;68546;59.142;37.948;2024-02-15T02:46:23;-12.17;51.42
79140;HTU21D;68546;59.142;37.948;2024-02-15T02:48:49;-12.11;51.37
79140;HTU21D;68546;59.142;37.948;2024-02-15T02:51:17;-12.07;51.85
79140;HTU21D;68546;59.142;37.948;2024-02-15T02:53:43;-11.99;51.81
79140;HTU21D;68546;59.142;37.948;2024-02-15T02:56:09;-11.95;51.68
79140;HTU21D;68546;59.142;37.948;2024-02-15T02:58:36;-11.93;51.59
79140;HTU21D;68546;59.142;37.948;2024-02-15T03:01:02;-11.91;51.42
79140;HTU21D;68546;59.142;37.948;2024-02-15T03:03:29;-11.90;51.31
79140;HTU21D;68546;59.142;37.948;2024-02-15T03:05:55;-11.90;51.18
79140;HTU21D;68546;59.142;37.948;2024-02-15T03:08:21;-11.90;51.10
79140;HTU21D;68546;59.142;37.948;2024-02-15T03:10:48;-11.90;51.11
79140;HTU21D;68546;59.142;37.948;2024-02-15T03:13:15;-11.90;51.00
79140;HTU21D;68546;59.142;37.948;2024-02-15T03:15:41;-11.92;51.02
79140;HTU21D;68546;59.142;37.948;2024-02-15T03:18:07;-11.91;51.02
79140;HTU21D;68546;59.142;37.948;2024-02-15T03:20:37;-11.90;50.98
79140;HTU21D;68546;59.142;37.948;2024-02-15T03:23:03;-11.91;51.04
79140;HTU21D;68546;59.142;37.948;2024-02-15T03:25:29;-11.90;51.05
79140;HTU21D;68546;59.142;37.948;2024-02-15T03:27:57;-11.88;51.02
79140;HTU21D;68546;59.142;37.948;2024-02-15T03:30:26;-11.86;50.98
79140;HTU21D;68546;59.142;37.948;2024-02-15T03:32:53;-11.85;51.04
79140;HTU21D;68546;59.142;37.948;2024-02-15T03:35:21;-11.85;51.05
79140;HTU21D;68546;59.142;37.948;2024-02-15T03:37:49;-11.82;51.11
79140;HTU21D;68546;59.142;37.948;2024-02-15T03:40:19;-11.77;51.09
79140;HTU21D;68546;59.142;37.948;2024-02-15T03:42:46;-11.74;51.57
79140;HTU21D;68546;59.142;37.948;2024-02-15T03:45:18;-11.63;51.50
79140;HTU21D;68546;59.142;37.948;2024-02-15T03:47:44;-11.61;51.41
79140;HTU21D;68546;59.142;37.948;2024-02-15T03:50:12;-11.56;51.38
79140;HTU21D;68546;59.142;37.948;2024-02-15T03:52:40;-11.53;51.32
79140;HTU21D;68546;59.142;37.948;2024-02-15T03:55:07;-11.51;51.25
79140;HTU21D;68546;59.142;37.948;2024-02-15T03:57:35;-11.50;51.21
79140;HTU21D;68546;59.142;37.948;2024-02-15T04:00:02;-11.49;51.12
79140;HTU21D;68546;59.142;37.948;2024-02-15T04:02:35;-11.45;50.95
79140;HTU21D;68546;59.142;37.948;2024-02-15T04:05:02;-11.44;51.31
79140;HTU21D;68546;59.142;37.948;2024-02-15T04:07:30;-11.38;51.16
79140;HTU21D;68546;59.142;37.948;2024-02-15T04:09:57;-11.35;51.07
79140;HTU21D;68546;59.142;37.948;2024-02-15T04:12:25;-11.33;51.02
79140;HTU21D;68546;59.142;37.948;2024-02-15T04:14:52;-11.32;51.04
79140;HTU21D;68546;59.142;37.948;2024-02-15T04:17:20;-11.29;51.05
79140;HTU21D;68546;59.142;37.948;2024-02-15T04:19:48;-11.30;50.86
79140;HTU21D;68546;59.142;37.948;2024-02-15T04:22:16;-11.29;50.73
79140;HTU21D;68546;59.142;37.948;2024-02-15T04:24:43;-11.29;50.69
79140;HTU21D;68546;59.142;37.948;2024-02-15T04:27:11;-11.30;50.71
79140;HTU21D;68546;59.142;37.948;2024-02-15T04:29:38;-11.24;50.75
79140;HTU21D;68546;59.142;37.948;2024-02-15T04:32:07;-11.26;50.54
79140;HTU21D;68546;59.142;37.948;2024-02-15T04:34:37;-11.30;50.59
79140;HTU21D;68546;59.142;37.948;2024-02-15T04:37:04;-11.31;50.63
79140;HTU21D;68546;59.142;37.948;2024-02-15T04:39:37;-11.29;50.56
79140;HTU21D;68546;59.142;37.948;2024-02-15T04:42:04;-11.26;50.51
79140;HTU21D;68546;59.142;37.948;2024-02-15T04:44:39;-11.30;50.41
79140;HTU21D;68546;59.142;37.948;2024-02-15T04:47:06;-11.31;50.34
79140;HTU21D;68546;59.142;37.948;2024-02-15T04:49:32;-11.31;50.37
79140;HTU21D;68546;59.142;37.948;2024-02-15T04:51:59;-11.31;50.37
79140;HTU21D;68546;59.142;37.948;2024-02-15T04:54:28;-11.31;50.43
79140;HTU21D;68546;59.142;37.948;2024-02-15T04:56:55;-11.29;50.50
79140;HTU21D;68546;59.142;37.948;2024-02-15T04:59:23;-11.26;50.55
79140;HTU21D;68546;59.142;37.948;2024-02-15T05:01:55;-11.22;50.64
79140;HTU21D;68546;59.142;37.948;2024-02-15T05:04:22;-11.20;50.71
79140;HTU21D;68546;59.142;37.948;2024-02-15T05:06:51;-11.19;50.62
79140;HTU21D;68546;59.142;37.948;2024-02-15T05:09:17;-11.16;50.61
79140;HTU21D;68546;59.142;37.948;2024-02-15T05:11:44;-11.14;50.63
79140;HTU21D;68546;59.142;37.948;2024-02-15T05:14:14;-11.11;50.66
79140;HTU21D;68546;59.142;37.948;2024-02-15T05:16:47;-11.08;50.73
79140;HTU21D;68546;59.142;37.948;2024-02-15T05:19:15;-11.05;50.89
79140;HTU21D;68546;59.142;37.948;2024-02-15T05:21:45;-11.02;50.90
79140;HTU21D;68546;59.142;37.948;2024-02-15T05:24:15;-10.97;50.90
79140;HTU21D;68546;59.142;37.948;2024-02-15T05:26:45;-10.96;50.89
79140;HTU21D;68546;59.142;37.948;2024-02-15T05:29:13;-10.90;50.98
79140;HTU21D;68546;59.142;37.948;2024-02-15T05:31:39;-10.88;50.95
79140;HTU21D;68546;59.142;37.948;2024-02-15T05:34:07;-10.85;50.88
79140;HTU21D;68546;59.142;37.948;2024-02-15T05:36:34;-10.80;50.95
79140;HTU21D;68546;59.142;37.948;2024-02-15T05:39:00;-10.78;50.87
79140;HTU21D;68546;59.142;37.948;2024-02-15T05:41:29;-10.76;50.71
79140;HTU21D;68546;59.142;37.948;2024-02-15T05:43:55;-10.74;50.71
79140;HTU21D;68546;59.142;37.948;2024-02-15T05:46:23;-10.71;50.77
79140;HTU21D;68546;59.142;37.948;2024-02-15T05:48:50;-10.64;50.82
79140;HTU21D;68546;59.142;37.948;2024-02-15T05:51:17;-10.63;50.85
79140;HTU21D;68546;59.142;37.948;2024-02-15T05:53:43;-10.61;50.80
79140;HTU21D;68546;59.142;37.948;2024-02-15T05:56:10;-10.56;50.68
79140;HTU21D;68546;59.142;37.948;2024-02-15T05:58:37;-10.56;50.66
79140;HTU21D;68546;59.142;37.948;2024-02-15T06:01:04;-10.53;50.69
79140;HTU21D;68546;59.142;37.948;2024-02-15T06:03:38;-10.51;50.69
79140;HTU21D;68546;59.142;37.948;2024-02-15T06:06:06;-10.46;50.71
79140;HTU21D;68546;59.142;37.948;2024-02-15T06:08:36;-10.45;50.72
79140;HTU21D;68546;59.142;37.948;2024-02-15T06:11:03;-10.40;50.76
79140;HTU21D;68546;59.142;37.948;2024-02-15T06:13:31;-10.36;50.84
79140;HTU21D;68546;59.142;37.948;2024-02-15T06:15:57;-10.32;50.86
79140;HTU21D;68546;59.142;37.948;2024-02-15T06:18:25;-10.28;50.75
79140;HTU21D;68546;59.142;37.948;2024-02-15T06:20:53;-10.22;50.72
79140;HTU21D;68546;59.142;37.948;2024-02-15T06:23:20;-10.21;50.66
79140;HTU21D;68546;59.142;37.948;2024-02-15T06:25:47;-10.18;50.69
79140;HTU21D;68546;59.142;37.948;2024-02-15T06:28:16;-10.11;50.75
79140;HTU21D;68546;59.142;37.948;2024-02-15T06:31:08;-10.08;50.80
79140;HTU21D;68546;59.142;37.948;2024-02-15T06:33:53;-10.06;50.59
79140;HTU21D;68546;59.142;37.948;2024-02-15T06:36:52;-10.02;50.66
79140;HTU21D;68546;59.142;37.948;2024-02-15T06:39:38;-10.00;50.66
79140;HTU21D;68546;59.142;37.948;2024-02-15T06:42:07;-9.93;50.61
79140;HTU21D;68546;59.142;37.948;2024-02-15T06:44:33;-9.93;50.59
79140;HTU21D;68546;59.142;37.948;2024-02-15T06:47:00;-9.90;50.63
79140;HTU21D;68546;59.142;37.948;2024-02-15T06:49:27;-9.86;50.53
79140;HTU21D;68546;59.142;37.948;2024-02-15T06:51:53;-9.85;50.41
79140;HTU21D;68546;59.142;37.948;2024-02-15T06:54:20;-9.84;50.37
79140;HTU21D;68546;59.142;37.948;2024-02-15T06:56:46;-9.78;50.37
79140;HTU21D;68546;59.142;37.948;2024-02-15T06:59:13;-9.79;50.43
79140;HTU21D;68546;59.142;37.948;2024-02-15T07:01:43;-9.75;50.50
79140;HTU21D;68546;59.142;37.948;2024-02-15T07:04:10;-9.73;50.35
79140;HTU21D;68546;59.142;37.948;2024-02-15T07:06:37;-9.70;50.35
79140;HTU21D;68546;59.142;37.948;2024-02-15T07:09:04;-9.68;50.39
79140;HTU21D;68546;59.142;37.948;2024-02-15T07:11:35;-9.66;50.42
79140;HTU21D;68546;59.142;37.948;2024-02-15T07:14:02;-9.63;50.27
79140;HTU21D;68546;59.142;37.948;2024-02-15T07:16:30;-9.61;50.19
79140;HTU21D;68546;59.142;37.948;2024-02-15T07:18:57;-9.59;50.07
79140;HTU21D;68546;59.142;37.948;2024-02-15T07:21:24;-9.59;50.09
79140;HTU21D;68546;59.142;37.948;2024-02-15T07:23:53;-9.57;50.05
79140;HTU21D;68546;59.142;37.948;2024-02-15T07:26:24;-9.56;49.94
79140;HTU21D;68546;59.142;37.948;2024-02-15T07:28:54;-9.56;49.75
79140;HTU21D;68546;59.142;37.948;2024-02-15T07:31:21;-9.55;49.76
79140;HTU21D;68546;59.142;37.948;2024-02-15T07:33:48;-9.54;49.77
79140;HTU21D;68546;59.142;37.948;2024-02-15T07:36:21;-9.49;49.97
79140;HTU21D;68546;59.142;37.948;2024-02-15T07:38:49;-9.45;50.06
79140;HTU21D;68546;59.142;37.948;2024-02-15T07:41:17;-9.43;50.09
79140;HTU21D;68546;59.142;37.948;2024-02-15T07:43:45;-9.40;50.01
79140;HTU21D;68546;59.142;37.948;2024-02-15T07:46:14;-9.36;49.89
79140;HTU21D;68546;59.142;37.948;2024-02-15T07:48:40;-9.36;49.79
79140;HTU21D;68546;59.142;37.948;2024-02-15T07:51:12;-9.33;49.83
79140;HTU21D;68546;59.142;37.948;2024-02-15T07:53:39;-9.32;49.84
79140;HTU21D;68546;59.142;37.948;2024-02-15T07:56:06;-9.30;49.84
79140;HTU21D;68546;59.142;37.948;2024-02-15T07:58:32;-9.29;49.87
79140;HTU21D;68546;59.142;37.948;2024-02-15T08:00:59;-9.28;49.95
79140;HTU21D;68546;59.142;37.948;2024-02-15T08:03:25;-9.28;49.96
79140;HTU21D;68546;59.142;37.948;2024-02-15T08:05:55;-9.26;49.95
79140;HTU21D;68546;59.142;37.948;2024-02-15T08:08:22;-9.25;50.02
79140;HTU21D;68546;59.142;37.948;2024-02-15T08:10:48;-9.24;50.17
79140;HTU21D;68546;59.142;37.948;2024-02-15T08:13:17;-9.20;50.18
79140;HTU21D;68546;59.142;37.948;2024-02-15T08:15:44;-9.22;50.13
79140;HTU21D;68546;59.142;37.948;2024-02-15T08:18:12;-9.20;50.27
79140;HTU21D;68546;59.142;37.948;2024-02-15T08:20:38;-9.16;50.47
79140;HTU21D;68546;59.142;37.948;2024-02-15T08:23:06;-9.12;50.53
79140;HTU21D;68546;59.142;37.948;2024-02-15T08:25:32;-9.10;50.53
79140;HTU21D;68546;59.142;37.948;2024-02-15T08:27:58;-9.08;50.64
79140;HTU21D;68546;59.142;37.948;2024-02-15T08:30:31;-9.04;50.72
79140;HTU21D;68546;59.142;37.948;2024-02-15T08:32:57;-8.98;50.70
79140;HTU21D;68546;59.142;37.948;2024-02-15T08:35:24;-8.98;50.63
79140;HTU21D;68546;59.142;37.948;2024-02-15T08:37:50;-8.95;50.64
79140;HTU21D;68546;59.142;37.948;2024-02-15T08:40:19;-8.93;50.72
79140;HTU21D;68546;59.142;37.948;2024-02-15T08:42:50;-8.90;50.77
79140;HTU21D;68546;59.142;37.948;2024-02-15T08:45:17;-8.86;50.83
79140;HTU21D;68546;59.142;37.948;2024-02-15T08:47:43;-8.81;50.95
79140;HTU21D;68546;59.142;37.948;2024-02-15T08:50:12;-8.78;51.04
79140;HTU21D;68546;59.142;37.948;2024-02-15T08:52:39;-8.73;51.13
79140;HTU21D;68546;59.142;37.948;2024-02-15T08:55:09;-8.70;51.11
79140;HTU21D;68546;59.142;37.948;2024-02-15T08:57:37;-8.65;51.14
79140;HTU21D;68546;59.142;37.948;2024-02-15T09:00:07;-8.59;51.15
79140;HTU21D;68546;59.142;37.948;2024-02-15T09:02:40;-8.56;51.08
79140;HTU21D;68546;59.142;37.948;2024-02-15T09:05:06;-8.52;51.18
79140;HTU21D;68546;59.142;37.948;2024-02-15T09:07:33;-8.49;51.26
79140;HTU21D;68546;59.142;37.948;2024-02-15T09:09:59;-8.40;51.33
79140;HTU21D;68546;59.142;37.948;2024-02-15T09:12:25;-8.34;51.47
79140;HTU21D;68546;59.142;37.948;2024-02-15T09:14:52;-8.27;51.58
79140;HTU21D;68546;59.142;37.948;2024-02-15T09:17:18;-8.20;51.66
79140;HTU21D;68546;59.142;37.948;2024-02-15T09:19:47;-8.10;51.72
79140;HTU21D;68546;59.142;37.948;2024-02-15T09:22:15;-8.05;51.69
79140;HTU21D;68546;59.142;37.948;2024-02-15T09:24:42;-7.96;51.61
79140;HTU21D;68546;59.142;37.948;2024-02-15T09:27:08;-7.93;51.51
79140;HTU21D;68546;59.142;37.948;2024-02-15T09:29:38;-7.87;51.49
79140;HTU21D;68546;59.142;37.948;2024-02-15T09:32:06;-7.81;51.66
79140;HTU21D;68546;59.142;37.948;2024-02-15T09:34:33;-7.75;51.79
79140;HTU21D;68546;59.142;37.948;2024-02-15T09:36:59;-7.69;51.86
79140;HTU21D;68546;59.142;37.948;2024-02-15T09:39:25;-7.62;51.93
79140;HTU21D;68546;59.142;37.948;2024-02-15T09:41:53;-7.54;52.00
79140;HTU21D;68546;59.142;37.948;2024-02-15T09:44:25;-7.50;51.95
79140;HTU21D;68546;59.142;37.948;2024-02-15T09:47:05;-7.44;51.86
79140;HTU21D;68546;59.142;37.948;2024-02-15T09:49:39;-7.38;51.87
79140;HTU21D;68546;59.142;37.948;2024-02-15T09:52:09;-7.35;51.80
79140;HTU21D;68546;59.142;37.948;2024-02-15T09:54:42;-7.34;51.71
79140;HTU21D;68546;59.142;37.948;2024-02-15T09:57:10;-7.31;51.74
79140;HTU21D;68546;59.142;37.948;2024-02-15T09:59:37;-7.29;51.80
79140;HTU21D;68546;59.142;37.948;2024-02-15T10:02:05;-7.25;51.82
79140;HTU21D;68546;59.142;37.948;2024-02-15T10:04:39;-7.22;51.82
79140;HTU21D;68546;59.142;37.948;2024-02-15T10:07:06;-7.20;51.87
79140;HTU21D;68546;59.142;37.948;2024-02-15T10:09:35;-7.18;51.94
79140;HTU21D;68546;59.142;37.948;2024-02-15T10:12:05;-7.11;52.00
79140;HTU21D;68546;59.142;37.948;2024-02-15T10:14:32;-7.07;52.07
79140;HTU21D;68546;59.142;37.948;2024-02-15T10:17:06;-7.03;52.09
79140;HTU21D;68546;59.142;37.948;2024-02-15T10:19:35;-6.98;52.09
79140;HTU21D;68546;59.142;37.948;2024-02-15T10:22:09;-6.93;52.28
79140;HTU21D;68546;59.142;37.948;2024-02-15T10:24:36;-6.83;52.53
79140;HTU21D;68546;59.142;37.948;2024-02-15T10:27:04;-6.72;52.74
79140;HTU21D;68546;59.142;37.948;2024-02-15T10:29:35;-6.63;52.66
79140;HTU21D;68546;59.142;37.948;2024-02-15T10:32:02;-6.57;52.49
79140;HTU21D;68546;59.142;37.948;2024-02-15T10:34:30;-6.50;52.30
79140;HTU21D;68546;59.142;37.948;2024-02-15T10:37:13;-6.46;52.32
79140;HTU21D;68546;59.142;37.948;2024-02-15T10:39:40;-6.42;52.30
79140;HTU21D;68546;59.142;37.948;2024-02-15T10:42:07;-6.39;52.14
79140;HTU21D;68546;59.142;37.948;2024-02-15T10:44:37;-6.36;51.98
79140;HTU21D;68546;59.142;37.948;2024-02-15T10:47:08;-6.36;51.94
79140;HTU21D;68546;59.142;37.948;2024-02-15T10:49:35;-6.36;51.95
79140;HTU21D;68546;59.142;37.948;2024-02-15T10:52:04;-6.33;52.01
79140;HTU21D;68546;59.142;37.948;2024-02-15T10:54:41;-6.33;51.96
79140;HTU21D;68546;59.142;37.948;2024-02-15T10:57:13;-6.32;51.97
79140;HTU21D;68546;59.142;37.948;2024-02-15T10:59:59;-6.28;52.04
79140;HTU21D;68546;59.142;37.948;2024-02-15T11:02:42;-6.26;51.98
79140;HTU21D;68546;59.142;37.948;2024-02-15T11:05:12;-6.23;51.99
79140;HTU21D;68546;59.142;37.948;2024-02-15T11:07:40;-6.23;51.96
79140;HTU21D;68546;59.142;37.948;2024-02-15T11:10:07;-6.20;51.92
79140;HTU21D;68546;59.142;37.948;2024-02-15T11:12:37;-6.20;51.91
79140;HTU21D;68546;59.142;37.948;2024-02-15T11:15:04;-6.18;51.97
79140;HTU21D;68546;59.142;37.948;2024-02-15T11:23:01;-6.07;52.14
79140;HTU21D;68546;59.142;37.948;2024-02-15T11:25:39;-6.05;52.05
79140;HTU21D;68546;59.142;37.948;2024-02-15T11:30:53;-6.03;52.04
79140;HTU21D;68546;59.142;37.948;2024-02-15T11:33:29;-6.01;51.98
79140;HTU21D;68546;59.142;37.948;2024-02-15T11:36:05;-5.99;52.00
79140;HTU21D;68546;59.142;37.948;2024-02-15T11:38:32;-5.97;51.91
79140;HTU21D;68546;59.142;37.948;2024-02-15T11:41:03;-5.96;51.89
79140;HTU21D;68546;59.142;37.948;2024-02-15T11:43:50;-5.94;51.91
79140;HTU21D;68546;59.142;37.948;2024-02-15T11:46:25;-5.96;51.88
79140;HTU21D;68546;59.142;37.948;2024-02-15T11:48:53;-5.94;51.97
79140;HTU21D;68546;59.142;37.948;2024-02-15T11:51:30;-5.94;52.01
79140;HTU21D;68546;59.142;37.948;2024-02-15T11:54:04;-5.93;51.96
79140;HTU21D;68546;59.142;37.948;2024-02-15T11:59:10;-5.91;51.87
79140;HTU21D;68546;59.142;37.948;2024-02-15T12:01:45;-5.90;51.87
79140;HTU21D;68546;59.142;37.948;2024-02-15T12:04:30;-5.91;51.86
79140;HTU21D;68546;59.142;37.948;2024-02-15T12:07:15;-5.90;51.83
79140;HTU21D;68546;59.142;37.948;2024-02-15T12:10:01;-5.91;51.84
79140;HTU21D;68546;59.142;37.948;2024-02-15T12:12:52;-5.89;51.91
79140;HTU21D;68546;59.142;37.948;2024-02-15T12:15:37;-5.89;51.91
79140;HTU21D;68546;59.142;37.948;2024-02-15T12:18:22;-5.88;51.86
79140;HTU21D;68546;59.142;37.948;2024-02-15T12:21:07;-5.87;51.81
79140;HTU21D;68546;59.142;37.948;2024-02-15T12:23:38;-5.87;51.81
79140;HTU21D;68546;59.142;37.948;2024-02-15T12:26:04;-5.87;51.67
79140;HTU21D;68546;59.142;37.948;2024-02-15T12:28:31;-5.89;51.51
79140;HTU21D;68546;59.142;37.948;2024-02-15T12:30:57;-5.93;51.31
79140;HTU21D;68546;59.142;37.948;2024-02-15T12:33:24;-5.97;51.24
79140;HTU21D;68546;59.142;37.948;2024-02-15T12:35:50;-5.99;51.20
79140;HTU21D;68546;59.142;37.948;2024-02-15T12:38:17;-6.03;51.08
79140;HTU21D;68546;59.142;37.948;2024-02-15T12:40:45;-6.06;51.01
79140;HTU21D;68546;59.142;37.948;2024-02-15T12:43:11;-6.12;51.02
79140;HTU21D;68546;59.142;37.948;2024-02-15T12:45:39;-6.15;51.01
79140;HTU21D;68546;59.142;37.948;2024-02-15T12:48:08;-6.18;50.96
79140;HTU21D;68546;59.142;37.948;2024-02-15T12:50:35;-6.22;50.94
79140;HTU21D;68546;59.142;37.948;2024-02-15T12:53:01;-6.26;50.90
79140;HTU21D;68546;59.142;37.948;2024-02-15T12:55:33;-6.30;50.89
79140;HTU21D;68546;59.142;37.948;2024-02-15T12:58:05;-6.33;51.03
79140;HTU21D;68546;59.142;37.948;2024-02-15T13:00:35;-6.36;51.12
79140;HTU21D;68546;59.142;37.948;2024-02-15T13:03:07;-6.41;51.04
79140;HTU21D;68546;59.142;37.948;2024-02-15T13:05:37;-6.45;51.00
79140;HTU21D;68546;59.142;37.948;2024-02-15T13:08:03;-6.48;51.08
79140;HTU21D;68546;59.142;37.948;2024-02-15T13:10:36;-6.50;51.04
79140;HTU21D;68546;59.142;37.948;2024-02-15T13:13:05;-6.52;51.01
79140;HTU21D;68546;59.142;37.948;2024-02-15T13:15:32;-6.56;50.94
79140;HTU21D;68546;59.142;37.948;2024-02-15T13:18:03;-6.60;50.85
79140;HTU21D;68546;59.142;37.948;2024-02-15T13:20:30;-6.63;50.80
79140;HTU21D;68546;59.142;37.948;2024-02-15T13:23:11;-6.67;50.82
79140;HTU21D;68546;59.142;37.948;2024-02-15T13:25:51;-6.72;50.73
79140;HTU21D;68546;59.142;37.948;2024-02-15T13:28:18;-6.75;50.73
79140;HTU21D;68546;59.142;37.948;2024-02-15T13:30:44;-6.79;50.74
79140;HTU21D;68546;59.142;37.948;2024-02-15T13:33:12;-6.83;50.82
79140;HTU21D;68546;59.142;37.948;2024-02-15T13:35:39;-6.86;50.88
79140;HTU21D;68546;59.142;37.948;2024-02-15T13:38:05;-6.90;50.95
79140;HTU21D;68546;59.142;37.948;2024-02-15T13:40:35;-6.91;51.04
79140;HTU21D;68546;59.142;37.948;2024-02-15T13:43:01;-6.93;50.92
79140;HTU21D;68546;59.142;37.948;2024-02-15T13:45:34;-6.97;50.98
79140;HTU21D;68546;59.142;37.948;2024-02-15T13:48:05;-6.98;50.99
79140;HTU21D;68546;59.142;37.948;2024-02-15T13:50:36;-7.03;50.89
79140;HTU21D;68546;59.142;37.948;2024-02-15T13:53:03;-7.08;50.88
79140;HTU21D;68546;59.142;37.948;2024-02-15T13:55:30;-7.10;51.01
79140;HTU21D;68546;59.142;37.948;2024-02-15T13:57:57;-7.13;51.17
79140;HTU21D;68546;59.142;37.948;2024-02-15T14:00:25;-7.16;51.18
79140;HTU21D;68546;59.142;37.948;2024-02-15T14:03:00;-7.17;51.21
79140;HTU21D;68546;59.142;37.948;2024-02-15T14:05:29;-7.20;51.24
79140;HTU21D;68546;59.142;37.948;2024-02-15T14:08:01;-7.21;51.27
79140;HTU21D;68546;59.142;37.948;2024-02-15T14:10:31;-7.24;51.34
79140;HTU21D;68546;59.142;37.948;2024-02-15T14:12:59;-7.26;51.41
79140;HTU21D;68546;59.142;37.948;2024-02-15T14:15:28;-7.26;51.27
79140;HTU21D;68546;59.142;37.948;2024-02-15T14:17:55;-7.30;51.30
79140;HTU21D;68546;59.142;37.948;2024-02-15T14:20:23;-7.33;51.37
79140;HTU21D;68546;59.142;37.948;2024-02-15T14:22:50;-7.34;51.49
79140;HTU21D;68546;59.142;37.948;2024-02-15T14:25:24;-7.34;51.59
79140;HTU21D;68546;59.142;37.948;2024-02-15T14:27:54;-7.36;51.63
79140;HTU21D;68546;59.142;37.948;2024-02-15T14:30:20;-7.36;51.69
79140;HTU21D;68546;59.142;37.948;2024-02-15T14:33:05;-7.37;51.69
79140;HTU21D;68546;59.142;37.948;2024-02-15T14:35:35;-7.38;51.74
79140;HTU21D;68546;59.142;37.948;2024-02-15T14:38:10;-7.38;51.82
79140;HTU21D;68546;59.142;37.948;2024-02-15T14:40:42;-7.40;51.83
79140;HTU21D;68546;59.142;37.948;2024-02-15T14:43:20;-7.40;51.80
79140;HTU21D;68546;59.142;37.948;2024-02-15T14:45:47;-7.41;51.85
79140;HTU21D;68546;59.142;37.948;2024-02-15T14:48:15;-7.41;51.95
79140;HTU21D;68546;59.142;37.948;2024-02-15T14:50:43;-7.44;51.94
79140;HTU21D;68546;59.142;37.948;2024-02-15T14:53:10;-7.44;51.98
79140;HTU21D;68546;59.142;37.948;2024-02-15T14:55:37;-7.45;51.98
79140;HTU21D;68546;59.142;37.948;2024-02-15T14:58:06;-7.46;51.95
79140;HTU21D;68546;59.142;37.948;2024-02-15T15:00:36;-7.49;51.79
79140;HTU21D;68546;59.142;37.948;2024-02-15T15:03:03;-7.50;51.77
79140;HTU21D;68546;59.142;37.948;2024-02-15T15:05:31;-7.54;51.69
79140;HTU21D;68546;59.142;37.948;2024-02-15T15:08:20;-7.59;51.82
79140;HTU21D;68546;59.142;37.948;2024-02-15T15:11:05;-7.60;51.85
79140;HTU21D;68546;59.142;37.948;2024-02-15T15:13:50;-7.64;51.81
79140;HTU21D;68546;59.142;37.948;2024-02-15T15:16:17;-7.67;51.80
79140;HTU21D;68546;59.142;37.948;2024-02-15T15:18:47;-7.69;51.74